Time;durP1;ratioP1;P1;durP2;ratioP2;P2;SDS_P1;SDS_P2;PMS_P1;PMS_P2;Temp;Humidity;BMP_temperature;BMP_pressure;BME280_temperature;BME280_humidity;BME280_pressure;Samples;Min_cycle;Max_cycle;Signal;HPM_P1;HPM_P2
2022/04/19 00:00:29;;;;;;;;;12.25;11.75;;;;;13.51;63.45;101212.69;5102799;27;45342;-62
2022/04/19 00:02:54;;;;;;;;;15.25;11.50;;;;;13.48;64.12;101212.78;5102781;27;45480;-62
2022/04/19 00:05:20;;;;;;;;;15.50;12.50;;;;;13.48;64.23;101209.31;5102847;27;45543;-62
2022/04/19 00:07:45;;;;;;;;;16.25;12.50;;;;;13.44;65.08;101202.50;5102353;27;45737;-63
2022/04/19 00:10:11;;;;;;;;;14.00;13.25;;;;;13.40;64.23;101199.09;5102973;27;45348;-62
2022/04/19 00:12:37;;;;;;;;;15.25;11.25;;;;;13.38;63.68;101193.06;5116322;27;45326;-63
2022/04/19 00:15:03;;;;;;;;;13.75;12.75;;;;;13.39;62.84;101197.38;5102837;27;45445;-62
2022/04/19 00:17:29;;;;;;;;;13.50;10.75;;;;;13.36;63.06;101197.50;5102619;27;46419;-62
2022/04/19 00:19:54;;;;;;;;;15.50;13.00;;;;;13.34;63.62;101188.84;5101132;27;45332;-63
2022/04/19 00:22:20;;;;;;;;;12.00;10.75;;;;;13.33;63.41;101194.97;5101192;27;45270;-63
2022/04/19 00:24:45;;;;;;;;;11.25;11.00;;;;;13.27;63.18;101189.97;5101831;27;45366;-62
2022/04/19 00:27:11;;;;;;;;;19.50;10.75;;;;;13.25;62.70;101192.63;5099244;27;45401;-62
2022/04/19 00:29:37;;;;;;;;;12.50;9.25;;;;;13.25;62.98;101195.25;5093767;27;45223;-64
2022/04/19 00:32:03;;;;;;;;;10.75;8.75;;;;;13.16;64.27;101186.78;5102181;27;45372;-62
2022/04/19 00:34:29;;;;;;;;;11.75;9.75;;;;;13.09;64.74;101193.97;5101144;27;45530;-62
2022/04/19 00:36:54;;;;;;;;;6.00;4.75;;;;;13.07;63.74;101198.38;5101623;27;45360;-63
2022/04/19 00:39:19;;;;;;;;;13.25;10.50;;;;;13.03;64.68;101197.63;5102488;27;45456;-62
2022/04/19 00:41:45;;;;;;;;;10.75;10.00;;;;;12.99;64.60;101195.97;5114541;27;45458;-63
2022/04/19 00:44:11;;;;;;;;;10.00;10.00;;;;;12.99;64.78;101189.91;5102336;27;45298;-63
2022/04/19 00:46:36;;;;;;;;;13.25;9.25;;;;;13.00;64.26;101187.25;5102003;27;45577;-63
2022/04/19 00:49:01;;;;;;;;;18.00;11.75;;;;;12.98;63.76;101191.66;5102356;27;45392;-62
2022/04/19 00:51:27;;;;;;;;;10.50;10.50;;;;;12.99;63.66;101179.47;5101793;27;45345;-65
2022/04/19 00:53:54;;;;;;;;;21.25;15.00;;;;;13.01;64.30;101183.78;5102055;27;45338;-62
2022/04/19 00:56:19;;;;;;;;;12.75;11.25;;;;;12.94;64.30;101183.97;5101912;27;46654;-62
2022/04/19 00:58:45;;;;;;;;;10.50;9.50;;;;;12.86;63.99;101183.38;5100644;27;45435;-62
2022/04/19 01:01:10;;;;;;;;;8.00;8.00;;;;;12.84;64.25;101179.97;5099281;27;45451;-62
2022/04/19 01:03:37;;;;;;;;;10.00;7.75;;;;;12.77;64.25;101174.03;5095542;27;45507;-62
2022/04/19 01:06:04;;;;;;;;;6.50;6.50;;;;;12.73;64.20;101180.25;5088588;27;45520;-62
2022/04/19 01:08:30;;;;;;;;;15.75;12.50;;;;;12.68;63.96;101171.72;5098960;27;45482;-62
2022/04/19 01:13:17;;;;;;;;;10.75;8.75;;;;;12.65;63.92;101170.06;5100508;27;45610;-62
2022/04/19 01:13:42;;;;;;;;;12.75;10.75;;;;;12.64;64.02;101181.38;5099305;27;45639;-62
2022/04/19 01:16:08;;;;;;;;;10.50;7.75;;;;;12.59;63.59;101177.19;5101353;27;46291;-62
2022/04/19 01:18:35;;;;;;;;;9.50;8.00;;;;;12.49;63.33;101174.84;5098976;27;45901;-62
2022/04/19 01:21:01;;;;;;;;;4.00;2.75;;;;;12.47;62.72;101173.19;5102368;27;45254;-62
2022/04/19 01:23:26;;;;;;;;;10.50;8.50;;;;;12.44;62.52;101170.69;5100271;27;45474;-62
2022/04/19 01:25:52;;;;;;;;;8.50;6.00;;;;;12.41;62.55;101166.41;5100033;27;46298;-62
2022/04/19 01:28:19;;;;;;;;;7.75;6.00;;;;;12.35;62.75;101178.75;5098247;27;46114;-62
2022/04/19 01:30:52;;;;;;;;;9.75;7.50;;;;;12.28;62.45;101179.81;5099213;27;45373;-62
2022/04/19 01:33:18;;;;;;;;;8.00;6.50;;;;;12.18;62.92;101166.16;5097596;27;45599;-63
2022/04/19 01:35:43;;;;;;;;;6.00;5.00;;;;;12.17;62.12;101159.25;5099261;27;46322;-63
2022/04/19 01:38:09;;;;;;;;;7.75;4.25;;;;;12.18;62.10;101168.78;5097897;27;45409;-63
2022/04/19 01:40:34;;;;;;;;;5.00;4.25;;;;;12.12;62.00;101164.59;5098653;27;45357;-63
2022/04/19 01:43:02;;;;;;;;;4.75;4.75;;;;;12.10;61.51;101162.94;5096639;27;45837;-64
2022/04/19 01:45:30;;;;;;;;;8.25;7.75;;;;;12.06;61.48;101159.56;5097216;27;47341;-64
2022/04/19 01:47:57;;;;;;;;;9.25;4.50;;;;;12.07;61.81;101163.00;5096119;27;45555;-64
2022/04/19 01:50:26;;;;;;;;;9.25;5.75;;;;;12.06;61.59;101158.69;5100381;27;45488;-63
2022/04/19 01:52:52;;;;;;;;;5.50;5.50;;;;;12.03;61.68;101158.78;5100458;27;45659;-64
2022/04/19 01:55:20;;;;;;;;;5.50;4.25;;;;;11.98;61.39;101160.63;5100788;27;45324;-64
2022/04/19 01:57:54;;;;;;;;;8.00;7.50;;;;;11.96;61.29;101162.44;5114917;27;45232;-64
2022/04/19 02:00:20;;;;;;;;;4.50;3.75;;;;;11.93;61.25;101165.97;5101844;27;46671;-64
2022/04/19 02:02:46;;;;;;;;;7.75;5.00;;;;;11.93;61.58;101170.31;5101185;27;45414;-64
2022/04/19 02:05:13;;;;;;;;;8.25;5.50;;;;;11.86;61.68;101167.91;5099490;27;47236;-63
2022/04/19 02:07:40;;;;;;;;;3.25;2.75;;;;;11.82;61.37;101163.66;5100833;27;45365;-64
2022/04/19 02:10:07;;;;;;;;;9.25;8.00;;;;;11.80;61.36;101162.81;5117531;27;45370;-64
2022/04/19 02:12:33;;;;;;;;;6.00;4.50;;;;;11.80;61.53;101162.81;5101190;27;45581;-64
2022/04/19 02:14:59;;;;;;;;;4.50;2.50;;;;;11.78;60.25;101164.63;5101161;27;46128;-64
2022/04/19 02:17:24;;;;;;;;;11.00;7.75;;;;;11.73;61.60;101161.25;5101241;27;45176;-64
2022/04/19 02:20:01;;;;;;;;;6.25;4.75;;;;;11.70;61.72;101170.88;5101498;27;45250;-64
2022/04/19 02:22:28;;;;;;;;;15.75;8.25;;;;;11.68;61.88;101168.31;5100991;27;45698;-64
2022/04/19 02:24:57;;;;;;;;;11.25;9.25;;;;;11.67;61.92;101171.81;5099958;27;48105;-64
2022/04/19 02:27:24;;;;;;;;;14.00;7.25;;;;;11.67;61.10;101171.81;5096265;27;45241;-64
2022/04/19 02:29:50;;;;;;;;;6.75;6.75;;;;;11.62;61.80;101165.88;5095095;27;45223;-65
2022/04/19 02:32:16;;;;;;;;;8.75;6.00;;;;;11.62;61.59;101163.28;5100947;27;45304;-65
2022/04/19 02:34:41;;;;;;;;;4.75;4.75;;;;;11.53;61.42;101171.31;5101071;27;45405;-64
2022/04/19 02:37:07;;;;;;;;;9.00;7.25;;;;;11.46;61.98;101164.53;5099248;27;45555;-64
2022/04/19 02:39:33;;;;;;;;;7.25;5.00;;;;;11.41;62.32;101166.38;5100682;27;45394;-64
2022/04/19 02:41:58;;;;;;;;;5.75;4.25;;;;;11.36;62.46;101155.22;5099242;27;45514;-64
2022/04/19 02:44:24;;;;;;;;;4.25;3.75;;;;;11.30;62.00;101156.25;5099516;27;46251;-64
2022/04/19 02:46:49;;;;;;;;;9.25;4.00;;;;;11.31;61.67;101162.31;5098896;27;45685;-63
2022/04/19 02:49:15;;;;;;;;;10.00;7.00;;;;;11.34;61.26;101159.63;5099181;27;45372;-64
2022/04/19 02:51:41;;;;;;;;;7.75;5.00;;;;;11.29;61.63;101162.34;5098472;27;45483;-64
2022/04/19 02:54:06;;;;;;;;;8.25;6.75;;;;;11.18;61.88;101156.53;5099010;27;45627;-64
2022/04/19 02:56:32;;;;;;;;;4.75;3.25;;;;;11.11;61.51;101165.38;5098665;27;45535;-63
2022/04/19 02:58:59;;;;;;;;;5.00;5.00;;;;;11.05;61.58;101155.97;5099538;27;45315;-63
2022/04/19 03:01:25;;;;;;;;;5.25;5.25;;;;;11.02;61.68;101150.84;5114186;27;45471;-64
2022/04/19 03:03:51;;;;;;;;;6.00;6.00;;;;;10.97;62.08;101156.13;5094696;27;45462;-64
2022/04/19 03:06:16;;;;;;;;;6.50;3.50;;;;;10.98;61.55;101150.03;5100172;27;45285;-63
2022/04/19 03:08:42;;;;;;;;;7.00;4.25;;;;;11.06;61.56;101146.41;5100499;27;45275;-64
2022/04/19 03:11:07;;;;;;;;;8.00;3.25;;;;;11.07;61.06;101148.97;5099994;27;45304;-63
2022/04/19 03:13:33;;;;;;;;;6.25;4.25;;;;;11.05;60.80;101148.16;5099744;27;46102;-64
2022/04/19 03:15:58;;;;;;;;;9.00;5.50;;;;;11.01;60.80;101140.44;5105168;27;45271;-63
2022/04/19 03:18:24;;;;;;;;;7.50;6.25;;;;;10.93;61.43;101145.84;5107618;27;45593;-63
2022/04/19 03:20:50;;;;;;;;;3.75;3.75;;;;;10.83;61.85;101145.19;5106182;27;45424;-63
2022/04/19 03:28:47;;;;;;;;;9.00;4.00;;;;;10.72;62.51;101135.91;5095591;27;45841;-63
2022/04/19 03:31:13;;;;;;;;;5.00;3.75;;;;;10.68;62.34;101140.31;5107244;27;45473;-64
2022/04/19 03:33:39;;;;;;;;;7.50;6.75;;;;;10.71;61.93;101142.00;5106962;27;45468;-64
2022/04/19 03:36:05;;;;;;;;;8.00;4.75;;;;;10.72;62.76;101133.31;5106693;27;45766;-65
2022/04/19 03:38:31;;;;;;;;;5.75;5.00;;;;;10.74;62.31;101134.13;5106833;27;45281;-65
2022/04/19 03:40:56;;;;;;;;;7.25;4.00;;;;;10.74;62.47;101134.13;5107106;27;45262;-65
2022/04/19 03:43:22;;;;;;;;;6.75;2.75;;;;;10.72;63.43;101135.91;5105321;27;47214;-65
2022/04/19 03:45:47;;;;;;;;;4.00;4.00;;;;;10.65;63.36;101130.84;5107073;27;45432;-64
2022/04/19 03:48:13;;;;;;;;;3.25;3.25;;;;;10.63;63.23;101136.97;5106946;27;45413;-64
2022/04/19 03:50:39;;;;;;;;;7.50;6.25;;;;;10.62;63.96;101128.31;5105499;27;45426;-64
2022/04/19 03:53:05;;;;;;;;;8.50;4.00;;;;;10.61;63.99;101137.00;5103918;27;48024;-64
2022/04/19 03:55:30;;;;;;;;;1.50;0.25;;;;;10.61;63.59;101129.22;5106880;27;45465;-64
2022/04/19 03:57:56;;;;;;;;;6.50;3.75;;;;;10.65;63.10;101136.03;5106294;27;45732;-64
2022/04/19 04:00:21;;;;;;;;;4.75;3.25;;;;;10.65;64.59;101125.66;5106433;27;45264;-64
2022/04/19 04:02:47;;;;;;;;;5.00;3.75;;;;;10.63;64.23;101134.38;5106382;27;45341;-64
2022/04/19 04:05:12;;;;;;;;;3.00;3.00;;;;;10.62;63.69;101127.47;5106789;27;45401;-64
2022/04/19 04:07:38;;;;;;;;;9.00;3.50;;;;;10.62;63.51;101120.53;5106229;27;45812;-64
2022/04/19 04:10:04;;;;;;;;;6.75;4.00;;;;;10.66;63.66;101121.31;5105344;27;45653;-65
2022/04/19 04:12:29;;;;;;;;;3.25;3.25;;;;;10.65;63.92;101127.41;5106338;27;46117;-64
2022/04/19 04:14:55;;;;;;;;;6.50;5.25;;;;;10.68;63.78;101123.88;5105213;27;45247;-64
2022/04/19 04:17:20;;;;;;;;;6.75;6.00;;;;;10.71;64.83;101121.19;5105253;27;45298;-64
2022/04/19 04:19:46;;;;;;;;;7.25;5.25;;;;;10.70;64.07;101127.28;5101943;27;45672;-63
2022/04/19 04:22:11;;;;;;;;;5.00;5.00;;;;;10.65;64.53;101128.25;5101629;27;47443;-62
2022/04/19 04:24:37;;;;;;;;;7.75;6.50;;;;;10.69;64.60;101120.38;5106417;27;45328;-62
2022/04/19 04:27:02;;;;;;;;;8.00;5.50;;;;;10.72;64.34;101125.50;5101483;27;45225;-63
2022/04/19 04:29:28;;;;;;;;;8.00;6.00;;;;;10.68;64.50;101118.66;5093611;27;45350;-62
2022/04/19 04:31:54;;;;;;;;;4.00;4.00;;;;;10.70;64.67;101122.94;5104321;27;46089;-62
2022/04/19 04:34:19;;;;;;;;;8.50;3.75;;;;;10.73;64.53;101122.88;5114364;27;45410;-63
2022/04/19 04:36:45;;;;;;;;;9.50;5.50;;;;;10.77;64.51;101124.50;5102102;27;45715;-64
2022/04/19 04:39:10;;;;;;;;;7.75;4.00;;;;;10.82;64.80;101127.03;5102568;27;45278;-64
2022/04/19 04:41:35;;;;;;;;;7.25;4.25;;;;;10.81;64.47;101127.88;5102313;27;46377;-64
2022/04/19 04:44:01;;;;;;;;;8.00;6.75;;;;;10.75;65.63;101134.09;5102584;27;45336;-64
2022/04/19 04:51:54;;;;;;;;;7.00;6.00;;;;;10.69;66.04;101151.56;5096838;27;45348;-65
2022/04/19 04:54:20;;;;;;;;;11.50;7.75;;;;;10.64;66.27;101142.13;5108087;27;45866;-63
2022/04/19 04:56:45;;;;;;;;;8.75;4.75;;;;;10.59;67.22;101143.09;5102482;27;45391;-63
2022/04/19 04:59:10;;;;;;;;;8.75;7.00;;;;;10.54;66.99;101140.59;5116007;27;45475;-63
2022/04/19 05:01:36;;;;;;;;;8.25;5.25;;;;;10.54;67.72;101144.94;5102597;27;45361;-63
2022/04/19 05:04:01;;;;;;;;;6.50;3.50;;;;;10.49;68.86;101150.25;5102396;27;45300;-63
2022/04/19 05:06:26;;;;;;;;;7.00;6.00;;;;;10.45;69.42;101146.00;5102410;27;45268;-63
2022/04/19 05:08:52;;;;;;;;;7.50;4.00;;;;;10.41;68.58;101139.16;5102025;27;45402;-64
2022/04/19 05:11:17;;;;;;;;;5.75;4.25;;;;;10.43;68.37;101147.78;5102180;27;46566;-65
2022/04/19 05:13:42;;;;;;;;;7.25;3.25;;;;;10.45;68.16;101148.59;5101374;27;45470;-63
2022/04/19 05:16:08;;;;;;;;;8.25;6.00;;;;;10.49;68.29;101147.66;5101470;27;45456;-64
2022/04/19 05:18:33;;;;;;;;;5.50;4.50;;;;;10.51;69.61;101143.28;5102108;27;45522;-64
2022/04/19 05:20:59;;;;;;;;;8.00;6.75;;;;;10.53;69.18;101145.84;5100976;27;45361;-66
2022/04/19 05:23:24;;;;;;;;;8.75;6.00;;;;;10.54;68.89;101147.53;5101260;27;45271;-66
2022/04/19 05:25:49;;;;;;;;;8.50;7.25;;;;;10.59;68.16;101156.94;5102216;27;45274;-67
2022/04/19 05:28:15;;;;;;;;;7.25;6.00;;;;;10.62;68.77;101150.84;5092102;27;45249;-64
2022/04/19 05:30:40;;;;;;;;;6.25;6.00;;;;;10.64;68.90;101151.69;5100750;27;45325;-66
2022/04/19 05:33:06;;;;;;;;;8.75;6.25;;;;;10.68;68.16;101152.47;5101814;27;45218;-69
2022/04/19 05:35:32;;;;;;;;;3.50;3.00;;;;;10.68;69.16;101145.53;5101477;27;46970;-68
2022/04/19 05:37:59;;;;;;;;;8.25;6.00;;;;;10.65;68.76;101154.25;5100531;27;45346;-65
2022/04/19 05:40:24;;;;;;;;;7.25;6.25;;;;;10.65;69.17;101150.78;5100757;27;46260;-67
2022/04/19 05:42:51;;;;;;;;;8.00;4.00;;;;;10.68;70.36;101150.72;5100292;27;45674;-65
2022/04/19 05:45:16;;;;;;;;;8.00;6.00;;;;;10.66;70.42;101150.75;5100853;27;45468;-66
2022/04/19 05:47:43;;;;;;;;;9.75;6.75;;;;;10.70;69.87;101163.69;5094457;27;45648;-65
2022/04/19 05:50:09;;;;;;;;;7.00;5.00;;;;;10.63;70.36;101163.81;5101470;27;45635;-63
2022/04/19 05:52:34;;;;;;;;;8.00;6.25;;;;;10.55;71.62;101155.31;5101298;27;45753;-64
2022/04/19 05:54:59;;;;;;;;;7.00;5.50;;;;;10.58;70.38;101156.97;5101109;27;45291;-64
2022/04/19 05:57:25;;;;;;;;;9.00;3.75;;;;;10.64;70.85;101157.72;5100646;27;45331;-63
2022/04/19 05:59:50;;;;;;;;;11.50;6.00;;;;;10.71;71.14;101147.19;5100995;27;45337;-67
2022/04/19 06:04:59;;;;;;;;;7.00;6.00;;;;;10.73;71.26;101153.22;5089702;27;45268;-69
2022/04/19 06:07:31;;;;;;;;;9.50;8.50;;;;;10.78;72.47;101157.41;5100806;27;45249;-66
2022/04/19 06:09:58;;;;;;;;;10.00;6.00;;;;;10.78;71.80;101156.56;5101149;27;46340;-66
2022/04/19 06:12:23;;;;;;;;;6.75;6.50;;;;;10.83;71.55;101149.53;5099535;27;45287;-66
2022/04/19 06:14:49;;;;;;;;;13.00;6.75;;;;;10.90;71.84;101153.69;5098953;27;45305;-64
2022/04/19 06:17:21;;;;;;;;;7.00;6.00;;;;;10.95;71.24;101165.72;5100226;27;45302;-68
2022/04/19 06:19:46;;;;;;;;;9.25;5.25;;;;;10.98;70.70;101160.44;5100567;27;45425;-65
2022/04/19 06:22:12;;;;;;;;;39.25;16.75;;;;;11.09;70.52;101156.75;5098298;27;45307;-64
2022/04/19 06:24:37;;;;;;;;;5.50;5.50;;;;;11.14;71.35;101160.09;5097776;27;45718;-64
2022/04/19 06:27:03;;;;;;;;;8.75;7.25;;;;;11.13;71.04;101163.59;5096584;27;45379;-64
2022/04/19 06:29:28;;;;;;;;;11.25;7.00;;;;;11.09;71.77;101168.00;5091231;27;46189;-64
2022/04/19 06:31:54;;;;;;;;;9.25;9.00;;;;;11.06;70.10;101162.03;5100839;27;45399;-63
2022/04/19 06:34:19;;;;;;;;;7.75;7.50;;;;;11.09;71.59;101162.81;5100767;27;45322;-66
2022/04/19 06:36:45;;;;;;;;;14.25;11.50;;;;;11.13;71.18;101163.59;5099696;27;45177;-64
2022/04/19 06:39:11;;;;;;;;;10.25;9.00;;;;;11.16;71.39;101161.75;5100296;27;46252;-65
2022/04/19 06:41:37;;;;;;;;;8.75;8.75;;;;;11.19;71.34;101156.47;5100504;27;45250;-64
2022/04/19 06:44:03;;;;;;;;;13.50;9.00;;;;;11.25;71.10;101158.97;5100308;27;45199;-64
2022/04/19 06:46:29;;;;;;;;;12.50;9.25;;;;;11.28;70.71;101160.63;5100498;27;45515;-64
2022/04/19 06:48:54;;;;;;;;;11.00;9.00;;;;;11.30;70.59;101155.41;5108370;27;47359;-65
2022/04/19 06:51:23;;;;;;;;;10.50;9.25;;;;;11.33;70.20;101152.72;5104147;27;45312;-65
2022/04/19 06:53:49;;;;;;;;;14.00;10.25;;;;;11.39;69.88;101157.75;5100569;27;45295;-65
2022/04/19 06:56:19;;;;;;;;;10.50;7.75;;;;;11.39;70.20;101149.94;5099307;27;45242;-65
2022/04/19 06:58:44;;;;;;;;;14.00;8.00;;;;;11.40;70.16;101147.31;5100025;27;46640;-64
2022/04/19 07:01:11;;;;;;;;;8.50;8.50;;;;;11.49;69.45;101154.06;5100129;27;45309;-64
2022/04/19 07:03:39;;;;;;;;;12.25;10.00;;;;;11.59;69.58;101151.16;5100702;27;45300;-64
2022/04/19 07:06:06;;;;;;;;;14.50;8.75;;;;;11.66;69.48;101141.47;5085667;27;45635;-64
2022/04/19 07:08:32;;;;;;;;;18.75;10.75;;;;;11.74;68.91;101147.34;5099537;27;45399;-64
2022/04/19 07:11:00;;;;;;;;;10.50;8.25;;;;;11.81;68.84;101146.34;5100015;27;45677;-64
2022/04/19 07:13:26;;;;;;;;;10.25;8.75;;;;;11.92;68.25;101151.25;5100389;27;45366;-64
2022/04/19 07:15:51;;;;;;;;;19.50;10.50;;;;;11.98;68.48;101152.81;5104706;27;45505;-64
2022/04/19 07:18:17;;;;;;;;;12.25;10.50;;;;;12.04;68.37;101156.13;5108572;27;45827;-65
2022/04/19 07:28:57;;;;;;;;;18.25;9.00;;;;;12.62;66.72;101145.84;5087883;27;45874;-64
2022/04/19 07:31:22;;;;;;;;;23.00;14.25;;;;;12.64;66.30;101141.44;5099891;27;45250;-64
2022/04/19 07:33:48;;;;;;;;;11.00;9.75;;;;;12.68;66.34;101137.81;5100039;27;45328;-64
2022/04/19 07:36:14;;;;;;;;;18.50;14.00;;;;;12.78;66.32;101141.84;5099076;27;45366;-64
2022/04/19 07:38:39;;;;;;;;;9.00;9.00;;;;;12.91;65.79;101145.81;5099140;27;46104;-64
2022/04/19 07:41:05;;;;;;;;;14.00;9.25;;;;;13.01;65.42;101142.03;5098344;27;45231;-64
2022/04/19 07:43:31;;;;;;;;;11.00;9.00;;;;;13.09;65.26;101142.63;5099214;27;45235;-65
2022/04/19 07:45:56;;;;;;;;;15.75;11.75;;;;;13.20;64.58;101144.06;5099678;27;45237;-65
2022/04/19 07:48:22;;;;;;;;;15.25;13.00;;;;;13.30;64.91;101141.13;5099449;27;46132;-64
2022/04/19 07:50:47;;;;;;;;;17.75;12.75;;;;;13.44;64.35;101150.28;5099740;27;45265;-64
2022/04/19 07:53:13;;;;;;;;;11.25;11.25;;;;;13.51;63.54;101149.16;5099541;27;45156;-65
2022/04/19 07:55:38;;;;;;;;;15.25;12.00;;;;;13.56;63.43;101142.88;5099753;27;45393;-64
2022/04/19 07:58:04;;;;;;;;;16.25;12.00;;;;;13.66;62.58;101136.44;5099615;27;45355;-65
2022/04/19 08:00:30;;;;;;;;;14.50;11.00;;;;;13.70;63.12;101143.28;5099816;27;45305;-64
2022/04/19 08:02:56;;;;;;;;;13.50;11.75;;;;;13.73;61.92;101139.69;5101907;27;45360;-64
2022/04/19 08:05:25;;;;;;;;;13.00;10.00;;;;;13.77;61.82;101138.69;5101913;27;46072;-64
2022/04/19 08:07:52;;;;;;;;;18.50;12.50;;;;;13.88;61.89;101138.31;5101450;27;46352;-65
2022/04/19 08:10:18;;;;;;;;;19.75;11.25;;;;;14.02;61.50;101143.94;5103172;27;45285;-64
2022/04/19 08:12:44;;;;;;;;;10.50;10.50;;;;;14.10;60.39;101133.19;5103041;27;45442;-64
2022/04/19 08:15:10;;;;;;;;;14.75;11.00;;;;;14.22;60.50;101133.63;5102939;27;45342;-64
2022/04/19 08:17:37;;;;;;;;;13.75;12.00;;;;;14.37;59.06;101140.03;5102754;27;46354;-64
2022/04/19 08:20:03;;;;;;;;;15.50;12.50;;;;;14.37;59.40;101136.56;5102844;27;45380;-65
2022/04/19 08:22:28;;;;;;;;;11.75;10.00;;;;;14.49;59.63;101139.63;5103051;27;45432;-63
2022/04/19 08:24:54;;;;;;;;;12.75;11.25;;;;;14.56;57.73;101137.63;5102877;27;45279;-63
2022/04/19 08:27:20;;;;;;;;;7.50;7.00;;;;;14.56;58.54;101137.63;5098398;27;46193;-63
2022/04/19 08:29:46;;;;;;;;;15.25;8.75;;;;;14.56;57.70;101135.84;5096116;27;45213;-63
2022/04/19 08:32:12;;;;;;;;;12.25;11.25;;;;;14.62;57.30;101134.78;5102871;27;45260;-64
2022/04/19 08:34:38;;;;;;;;;15.00;11.75;;;;;14.69;57.03;101138.88;5102877;27;45481;-63
2022/04/19 08:37:04;;;;;;;;;13.25;9.75;;;;;14.73;55.38;101129.97;5101847;27;46519;-63
2022/04/19 08:39:30;;;;;;;;;10.50;10.50;;;;;14.72;56.14;101123.03;5102616;27;45309;-63
2022/04/19 08:41:56;;;;;;;;;10.75;10.50;;;;;14.83;56.70;101138.34;5102715;27;45329;-64
2022/04/19 08:44:21;;;;;;;;;12.75;8.25;;;;;14.95;55.92;101140.47;5102799;27;45317;-64
2022/04/19 08:46:47;;;;;;;;;13.75;8.75;;;;;15.02;55.28;101130.63;5102513;27;46446;-65
2022/04/19 08:49:12;;;;;;;;;19.00;12.00;;;;;15.10;55.09;101126.78;5102631;27;45373;-64
2022/04/19 08:51:39;;;;;;;;;17.25;12.75;;;;;15.19;55.25;101122.94;5102368;27;45456;-64
2022/04/19 08:59:33;;;;;;;;;8.00;6.00;;;;;15.50;52.89;101119.91;5102481;27;45413;-64
2022/04/19 09:02:02;;;;;;;;;10.00;7.50;;;;;15.51;53.26;101117.22;5102646;27;45504;-64
2022/04/19 09:04:28;;;;;;;;;7.75;6.25;;;;;15.57;53.80;101116.13;5100820;27;45317;-63
2022/04/19 09:06:56;;;;;;;;;6.00;5.75;;;;;15.66;53.13;101110.53;5101818;27;45440;-63
2022/04/19 09:09:23;;;;;;;;;9.50;8.00;;;;;15.83;52.68;101107.19;5101497;27;45828;-64
2022/04/19 09:11:49;;;;;;;;;7.75;7.75;;;;;15.97;51.83;101102.19;5102127;27;45299;-64
2022/04/19 09:14:15;;;;;;;;;9.50;8.50;;;;;16.08;51.97;101113.06;5101670;27;45147;-64
2022/04/19 09:16:40;;;;;;;;;5.75;5.75;;;;;16.20;51.51;101111.63;5102055;27;45495;-64
2022/04/19 09:19:09;;;;;;;;;7.25;6.50;;;;;16.22;49.37;101098.47;5102023;27;45230;-64
2022/04/19 09:21:37;;;;;;;;;7.50;5.00;;;;;16.29;50.85;101099.91;5101757;27;45342;-64
2022/04/19 09:24:16;;;;;;;;;11.25;10.50;;;;;16.50;50.46;101106.78;5101400;27;45272;-64
2022/04/19 09:26:45;;;;;;;;;15.00;8.75;;;;;16.58;51.04;101104.66;5101322;27;46202;-64
2022/04/19 09:29:24;;;;;;;;;13.75;11.00;;;;;16.72;50.36;101104.91;5100963;27;45365;-65
2022/04/19 09:31:55;;;;;;;;;14.50;7.25;;;;;16.77;49.78;101101.19;5101231;27;45410;-65
2022/04/19 09:34:34;;;;;;;;;15.00;10.75;;;;;16.83;49.29;101096.53;5101635;27;45393;-65
2022/04/19 09:37:13;;;;;;;;;8.75;8.00;;;;;16.98;49.93;101097.53;5100798;27;46098;-65
2022/04/19 09:39:40;;;;;;;;;14.50;11.50;;;;;17.19;49.44;101098.28;5101474;27;45900;-65
2022/04/19 09:42:09;;;;;;;;;10.75;8.00;;;;;17.19;46.90;101095.66;5099730;27;45330;-64
2022/04/19 09:44:42;;;;;;;;;10.50;8.50;;;;;17.15;47.95;101094.94;5099418;27;45697;-65
2022/04/19 09:47:09;;;;;;;;;9.75;8.75;;;;;17.21;48.76;101092.00;5100971;27;46119;-65
2022/04/19 09:49:44;;;;;;;;;17.00;10.75;;;;;17.26;48.46;101094.44;5102494;27;45642;-64
2022/04/19 09:52:22;;;;;;;;;11.50;9.00;;;;;17.38;48.24;101095.59;5111905;27;45269;-64
2022/04/19 09:55:05;;;;;;;;;14.00;8.75;;;;;17.44;47.54;101088.28;5096347;27;45230;-65
2022/04/19 09:57:40;;;;;;;;;14.00;8.75;;;;;17.56;48.13;101082.38;5094243;27;45514;-64
2022/04/19 10:00:08;;;;;;;;;8.50;8.00;;;;;17.77;48.13;101080.44;5100897;27;45166;-64
2022/04/19 10:08:21;;;;;;;;;9.00;7.75;;;;;17.86;46.40;101074.72;5087231;27;45452;-64
2022/04/19 10:10:52;;;;;;;;;8.75;8.00;;;;;17.93;47.14;101073.47;5100609;27;45219;-63
2022/04/19 10:13:23;;;;;;;;;12.00;9.75;;;;;17.93;46.47;101065.56;5100717;27;45774;-64
2022/04/19 10:15:49;;;;;;;;;11.75;11.00;;;;;17.89;46.77;101058.78;5100619;27;45282;-64
2022/04/19 10:18:15;;;;;;;;;11.50;10.00;;;;;17.82;46.60;101052.16;5099971;27;46318;-64
2022/04/19 10:20:59;;;;;;;;;13.00;11.75;;;;;17.89;47.05;101050.91;5099768;27;45706;-64
2022/04/19 10:23:40;;;;;;;;;15.00;10.50;;;;;18.05;46.85;101056.19;5100036;27;45322;-65
2022/04/19 10:26:12;;;;;;;;;11.25;10.50;;;;;18.22;47.01;101045.63;5099868;27;45321;-64
2022/04/19 10:28:37;;;;;;;;;12.50;11.25;;;;;18.31;45.84;101044.25;5088788;27;46192;-64
2022/04/19 10:31:03;;;;;;;;;14.00;9.50;;;;;18.38;46.91;101052.66;5100273;27;45349;-64
2022/04/19 10:33:49;;;;;;;;;16.50;13.25;;;;;18.39;46.44;101052.56;5099938;27;45334;-64
2022/04/19 10:36:16;;;;;;;;;12.50;11.00;;;;;18.41;46.71;101044.59;5099910;27;45508;-64
2022/04/19 10:38:43;;;;;;;;;14.75;11.25;;;;;18.44;46.58;101050.56;5100112;27;46196;-64
2022/04/19 10:41:08;;;;;;;;;12.25;11.25;;;;;18.48;45.86;101049.44;5100261;27;45850;-64
2022/04/19 10:43:34;;;;;;;;;12.25;11.00;;;;;18.48;46.31;101041.56;5100150;27;45320;-64
2022/04/19 10:46:19;;;;;;;;;13.75;11.75;;;;;18.47;46.22;101050.38;5112453;27;45550;-64
2022/04/19 10:49:23;;;;;;;;;13.00;11.75;;;;;18.48;46.24;101046.81;5087835;27;46435;-65
2022/04/19 10:51:50;;;;;;;;;12.00;10.25;;;;;18.47;46.30;101042.47;5099670;27;45225;-64
2022/04/19 10:54:16;;;;;;;;;18.00;15.00;;;;;18.54;46.65;101038.56;5099762;27;45349;-65
2022/04/19 11:00:01;;;;;;;;;17.75;16.25;;;;;18.86;46.36;101040.38;5086748;27;45712;-63
2022/04/19 11:02:36;;;;;;;;;18.00;15.00;;;;;18.89;46.50;101032.28;5099429;27;45261;-63
2022/04/19 11:05:03;;;;;;;;;16.50;14.75;;;;;19.00;46.31;101025.44;5100073;27;45486;-63
2022/04/19 11:07:49;;;;;;;;;24.00;20.50;;;;;19.15;45.81;101026.34;5093278;27;45413;-64
2022/04/19 11:10:37;;;;;;;;;21.75;17.50;;;;;19.22;46.12;101016.28;5099119;27;46415;-64
2022/04/19 11:13:02;;;;;;;;;16.50;14.50;;;;;19.32;44.73;101017.44;5088013;27;45353;-64
2022/04/19 11:15:38;;;;;;;;;17.00;16.00;;;;;19.35;45.29;101017.25;5099883;27;45665;-64
2022/04/19 11:18:24;;;;;;;;;23.75;17.25;;;;;19.44;45.41;101011.47;5100085;27;45378;-64
2022/04/19 11:20:51;;;;;;;;;21.75;17.00;;;;;19.54;45.42;101012.63;5099617;27;46298;-64
2022/04/19 11:23:19;;;;;;;;;11.25;11.25;;;;;19.64;45.62;101002.38;5099471;27;45622;-64
2022/04/19 11:25:45;;;;;;;;;18.75;15.75;;;;;19.66;45.42;101006.63;5099023;27;45445;-64
2022/04/19 11:28:11;;;;;;;;;21.25;18.25;;;;;19.69;44.87;101000.31;5085942;27;45534;-64
2022/04/19 11:30:42;;;;;;;;;24.50;20.00;;;;;19.64;43.96;101011.13;5098637;27;46214;-64
2022/04/19 11:33:08;;;;;;;;;22.25;17.50;;;;;19.66;44.99;101005.75;5098473;27;45219;-64
2022/04/19 11:35:34;;;;;;;;;18.25;14.25;;;;;19.69;44.74;100998.50;5099595;27;45237;-63
2022/04/19 11:38:08;;;;;;;;;17.75;15.00;;;;;19.72;44.13;101000.94;5103270;27;45539;-64
2022/04/19 11:49:02;;;;;;;;;14.75;12.00;;;;;20.09;42.93;101003.94;5113590;27;45378;-63
2022/04/19 11:51:27;;;;;;;;;17.25;14.50;;;;;20.14;42.26;100991.31;5106152;27;45393;-64
2022/04/19 11:53:52;;;;;;;;;16.50;13.75;;;;;20.19;42.51;101001.56;5103249;27;45545;-64
2022/04/19 11:56:18;;;;;;;;;17.75;16.00;;;;;20.24;42.73;100999.50;5101579;27;45353;-64
2022/04/19 11:58:49;;;;;;;;;17.75;14.75;;;;;20.33;42.15;100990.97;5102875;27;45444;-64
2022/04/19 12:01:14;;;;;;;;;19.00;16.00;;;;;20.44;41.72;101000.91;5102464;27;45349;-64
2022/04/19 12:03:40;;;;;;;;;21.25;14.00;;;;;20.54;41.84;100991.41;5102723;27;45345;-63